createdAt,value
2023-03-24T00:00:02.842Z,60.84
2023-03-24T00:02:29.396Z,60.53
2023-03-24T00:04:58.722Z,60.64
2023-03-24T00:07:26.096Z,61.05
2023-03-24T00:09:54.047Z,60.54
2023-03-24T00:12:20.620Z,61.11
2023-03-24T00:14:47.327Z,61.03
2023-03-24T00:17:14.172Z,62.16
2023-03-24T00:19:41.304Z,62.12
2023-03-24T00:22:09.376Z,62.39
2023-03-24T00:24:35.925Z,62.45
2023-03-24T00:27:03.462Z,62.01
2023-03-24T00:29:30.005Z,61.79
2023-03-24T00:31:56.727Z,62.07
2023-03-24T00:34:23.633Z,62.11
2023-03-24T00:36:51.592Z,61.92
2023-03-24T00:39:19.606Z,61.88
2023-03-24T00:41:48.031Z,60.96
2023-03-24T00:44:19.553Z,61.44
2023-03-24T00:46:55.497Z,62.11
2023-03-24T00:49:42.259Z,62.49
2023-03-24T00:52:10.645Z,63.10
2023-03-24T00:54:38.723Z,62.50
2023-03-24T00:57:06.348Z,62.44
2023-03-24T00:59:38.068Z,63.05
2023-03-24T01:02:05.216Z,61.49
2023-03-24T01:04:31.821Z,60.76
2023-03-24T01:06:58.436Z,59.25
2023-03-24T01:09:24.918Z,59.07
2023-03-24T01:11:52.421Z,58.70
2023-03-24T01:14:19.624Z,58.45
2023-03-24T01:16:46.390Z,59.26
2023-03-24T01:19:12.935Z,58.32
2023-03-24T01:21:40.192Z,58.17
2023-03-24T01:24:07.746Z,59.49
2023-03-24T01:26:34.539Z,58.47
2023-03-24T01:29:01.131Z,54.88
2023-03-24T01:31:27.704Z,51.90
2023-03-24T01:33:54.285Z,50.78
2023-03-24T01:36:20.836Z,49.54
2023-03-24T01:38:47.305Z,48.60
2023-03-24T01:41:13.808Z,48.55
2023-03-24T01:43:40.328Z,48.19
2023-03-24T01:46:15.827Z,47.86
2023-03-24T01:49:00.052Z,48.16
2023-03-24T01:51:43.013Z,49.51
2023-03-24T01:54:22.108Z,49.57
2023-03-24T01:57:20.779Z,49.32
2023-03-24T01:59:50.022Z,49.67
2023-03-24T02:02:17.646Z,50.00
2023-03-24T02:04:48.397Z,50.56
2023-03-24T02:07:36.561Z,50.73
2023-03-24T02:10:08.267Z,52.75
2023-03-24T02:12:35.406Z,52.51
2023-03-24T02:15:03.182Z,52.97
2023-03-24T02:17:57.553Z,52.45
2023-03-24T02:20:32.628Z,52.42
2023-03-24T02:23:35.652Z,51.31
2023-03-24T02:26:39.712Z,51.69
2023-03-24T02:29:35.656Z,52.19
2023-03-24T02:32:12.713Z,51.58
2023-03-24T02:35:10.541Z,51.83
2023-03-24T02:37:53.354Z,51.53
2023-03-24T02:40:25.555Z,51.42
2023-03-24T02:43:37.763Z,51.15
2023-03-24T02:46:19.652Z,49.90
2023-03-24T02:48:58.857Z,50.40
2023-03-24T02:51:55.583Z,50.57
2023-03-24T02:54:44.416Z,50.94
2023-03-24T02:57:28.464Z,51.62
2023-03-24T03:00:09.534Z,50.47
2023-03-24T03:02:46.054Z,50.68
2023-03-24T03:05:24.087Z,49.77
2023-03-24T03:07:54.336Z,50.33
2023-03-24T03:10:25.603Z,50.23
2023-03-24T03:12:56.618Z,50.49
2023-03-24T03:15:27.970Z,51.87
2023-03-24T03:18:05.893Z,50.53
2023-03-24T03:20:38.961Z,51.08
2023-03-24T03:23:11.554Z,49.99
2023-03-24T03:25:43.244Z,50.02
2023-03-24T03:28:12.046Z,49.90
2023-03-24T03:30:45.256Z,49.73
2023-03-24T03:33:29.338Z,49.62
2023-03-24T03:36:28.548Z,48.86
2023-03-24T03:39:37.060Z,48.92
2023-03-24T03:42:05.160Z,48.70
2023-03-24T03:44:31.928Z,48.15
2023-03-24T03:46:58.799Z,48.57
2023-03-24T03:49:25.823Z,48.69
2023-03-24T03:51:52.567Z,48.53
2023-03-24T03:54:20.187Z,48.89
2023-03-24T03:56:49.612Z,48.67
2023-03-24T03:59:34.062Z,49.49
2023-03-24T04:02:37.132Z,50.46
2023-03-24T04:05:21.759Z,51.14
2023-03-24T04:08:06.248Z,51.57
2023-03-24T04:11:06.787Z,52.20
2023-03-24T04:13:54.497Z,53.71
2023-03-24T04:16:46.742Z,54.38
2023-03-24T04:19:39.098Z,54.97
2023-03-24T04:22:38.380Z,55.93
2023-03-24T04:25:14.276Z,56.24
2023-03-24T04:27:51.231Z,56.83
2023-03-24T04:30:46.464Z,56.95
2023-03-24T04:33:28.838Z,58.29
2023-03-24T04:36:06.612Z,59.10
2023-03-24T04:38:36.429Z,59.06
2023-03-24T04:41:05.483Z,59.27
2023-03-24T04:43:36.842Z,59.62
2023-03-24T04:46:05.544Z,60.14
2023-03-24T04:48:32.129Z,60.66
2023-03-24T04:51:00.727Z,61.11
2023-03-24T04:53:27.965Z,60.02
2023-03-24T04:56:01.482Z,61.33
2023-03-24T04:58:28.183Z,64.08
2023-03-24T05:00:56.555Z,66.67
2023-03-24T05:03:23.282Z,69.34
2023-03-24T05:05:50.502Z,70.84
2023-03-24T05:08:17.950Z,73.42
2023-03-24T05:10:45.150Z,74.15
2023-03-24T05:13:12.760Z,74.54
2023-03-24T05:15:40.179Z,75.54
2023-03-24T05:18:07.305Z,79.14
2023-03-24T05:20:33.838Z,80.02
2023-03-24T05:23:01.558Z,76.74
2023-03-24T05:25:28.054Z,78.09
2023-03-24T05:27:54.657Z,76.13
2023-03-24T05:30:21.630Z,74.36
2023-03-24T05:32:48.419Z,75.66
2023-03-24T05:35:15.033Z,76.30
2023-03-24T05:37:41.480Z,78.06
2023-03-24T05:40:08.601Z,80.13
2023-03-24T05:42:35.429Z,81.18
2023-03-24T05:45:02.035Z,80.27
2023-03-24T05:47:28.539Z,78.66
2023-03-24T05:49:55.197Z,79.16
2023-03-24T05:52:22.487Z,77.91
2023-03-24T05:54:52.183Z,82.04
2023-03-24T05:57:19.751Z,81.62
2023-03-24T05:59:46.263Z,82.49
2023-03-24T06:02:12.878Z,84.05
2023-03-24T06:04:39.452Z,83.09
2023-03-24T06:07:05.989Z,82.06
2023-03-24T06:09:40.877Z,79.33
2023-03-24T06:12:08.580Z,76.26
2023-03-24T06:14:35.567Z,73.15
2023-03-24T06:17:02.203Z,71.65
2023-03-24T06:19:30.927Z,70.75
2023-03-24T06:22:02.810Z,72.11
2023-03-24T06:24:29.904Z,71.62
2023-03-24T06:27:02.068Z,71.87
2023-03-24T06:29:31.692Z,72.88
2023-03-24T06:31:58.188Z,73.73
2023-03-24T06:34:25.306Z,73.59
2023-03-24T06:36:52.583Z,74.06
2023-03-24T06:39:19.228Z,74.14
2023-03-24T06:41:45.747Z,75.57
2023-03-24T06:44:12.313Z,76.39
2023-03-24T06:46:38.986Z,73.91
2023-03-24T06:49:05.796Z,71.55
2023-03-24T06:51:32.878Z,72.42
2023-03-24T06:53:59.387Z,71.85
2023-03-24T06:56:27.141Z,72.76
2023-03-24T06:58:53.907Z,72.81
2023-03-24T07:01:20.716Z,72.92
2023-03-24T07:03:48.373Z,71.83
2023-03-24T07:06:15.052Z,72.60
2023-03-24T07:08:41.563Z,73.42
2023-03-24T07:11:10.197Z,74.35
2023-03-24T07:13:36.948Z,75.21
2023-03-24T07:16:03.902Z,75.08
2023-03-24T07:18:30.488Z,74.08
2023-03-24T07:20:57.002Z,74.80
2023-03-24T07:23:25.407Z,73.97
2023-03-24T07:25:52.060Z,75.10
2023-03-24T07:28:18.667Z,75.35
2023-03-24T07:30:45.460Z,73.19
2023-03-24T07:33:12.488Z,73.09
2023-03-24T07:35:40.169Z,72.06
2023-03-24T07:38:06.829Z,72.51
2023-03-24T07:40:35.071Z,71.75
2023-03-24T07:43:05.929Z,70.70
2023-03-24T07:45:33.069Z,70.43
2023-03-24T07:48:02.236Z,71.39
2023-03-24T07:50:29.925Z,70.96
2023-03-24T07:52:59.340Z,72.20
2023-03-24T07:55:27.082Z,72.73
2023-03-24T07:57:53.637Z,73.83
2023-03-24T08:00:21.132Z,73.47
2023-03-24T08:02:52.013Z,73.64
2023-03-24T08:05:23.273Z,73.36
2023-03-24T08:07:55.712Z,73.09
2023-03-24T08:10:24.998Z,73.40
2023-03-24T08:12:52.059Z,73.26
2023-03-24T08:15:19.117Z,73.79
2023-03-24T08:17:45.847Z,74.59
2023-03-24T08:20:15.698Z,74.57
2023-03-24T08:22:44.464Z,75.18
2023-03-24T08:25:12.918Z,75.17
2023-03-24T08:27:40.848Z,76.43
2023-03-24T08:30:10.466Z,76.56
2023-03-24T08:32:37.888Z,76.94
2023-03-24T08:35:05.187Z,77.49
2023-03-24T08:37:32.080Z,77.45
2023-03-24T08:39:58.992Z,77.45
2023-03-24T08:42:26.012Z,77.93
2023-03-24T08:44:53.184Z,78.94
2023-03-24T08:47:19.717Z,79.30
2023-03-24T08:49:46.354Z,82.14
2023-03-24T08:52:12.894Z,83.69
2023-03-24T08:54:39.406Z,84.47
2023-03-24T08:57:06.177Z,85.48
2023-03-24T08:59:32.747Z,86.36
2023-03-24T09:01:59.334Z,86.80
2023-03-24T09:04:26.261Z,89.35
2023-03-24T09:06:53.620Z,90.03
2023-03-24T09:09:20.360Z,89.73
2023-03-24T09:11:48.679Z,90.23
2023-03-24T09:14:15.426Z,89.59
2023-03-24T09:16:43.977Z,88.69
2023-03-24T09:19:11.084Z,88.62
2023-03-24T09:21:38.409Z,89.41
2023-03-24T09:24:05.227Z,90.30
2023-03-24T09:26:33.882Z,90.02
2023-03-24T09:29:00.395Z,90.89
2023-03-24T09:31:26.931Z,91.60
2023-03-24T09:33:53.449Z,92.99
2023-03-24T09:36:20.040Z,94.47
2023-03-24T09:38:46.690Z,91.88
2023-03-24T09:41:25.712Z,92.03
2023-03-24T09:44:09.910Z,91.48
2023-03-24T09:46:51.931Z,91.22
2023-03-24T09:49:29.444Z,92.38
2023-03-24T09:52:04.412Z,91.96
2023-03-24T09:54:46.249Z,91.95
2023-03-24T09:57:22.148Z,90.95
2023-03-24T09:59:48.691Z,91.84
2023-03-24T10:02:20.721Z,91.35
2023-03-24T10:04:48.421Z,94.16
2023-03-24T10:07:43.254Z,94.97
2023-03-24T10:10:32.093Z,94.04
2023-03-24T10:13:06.937Z,94.32
2023-03-24T10:15:43.984Z,93.90
2023-03-24T10:18:48.662Z,93.89
2023-03-24T10:21:37.155Z,93.97
2023-03-24T10:24:27.556Z,94.65
2023-03-24T10:27:03.904Z,92.63
2023-03-24T10:29:34.499Z,89.77
2023-03-24T10:32:06.730Z,87.70
2023-03-24T10:34:34.673Z,89.42
2023-03-24T10:37:04.124Z,88.11
2023-03-24T10:39:41.940Z,88.89
2023-03-24T10:42:18.459Z,90.54
2023-03-24T10:44:48.290Z,92.46
2023-03-24T10:47:18.015Z,93.22
2023-03-24T10:50:15.359Z,94.98
2023-03-24T10:52:46.520Z,95.34
2023-03-24T10:55:19.343Z,96.42
2023-03-24T10:57:49.907Z,95.48
2023-03-24T11:00:19.632Z,95.86
2023-03-24T11:02:56.664Z,96.21
2023-03-24T11:05:30.528Z,97.34
2023-03-24T11:08:10.498Z,96.70
2023-03-24T11:10:37.033Z,98.80
2023-03-24T11:13:05.162Z,96.55
2023-03-24T11:15:34.200Z,96.03
2023-03-24T11:18:12.453Z,99.00
2023-03-24T11:20:43.521Z,98.90
2023-03-24T11:23:16.631Z,97.85
2023-03-24T11:25:47.688Z,98.71
2023-03-24T11:28:18.396Z,98.41
2023-03-24T11:30:51.325Z,96.87
2023-03-24T11:33:34.940Z,98.93
2023-03-24T11:36:26.239Z,99.17
2023-03-24T11:39:01.298Z,97.57
2023-03-24T11:41:28.059Z,98.28
2023-03-24T11:44:18.034Z,96.13
2023-03-24T11:46:49.067Z,95.53
2023-03-24T11:49:20.103Z,94.63
2023-03-24T11:51:50.786Z,94.47
2023-03-24T11:54:20.234Z,95.21
2023-03-24T11:56:51.792Z,93.43
2023-03-24T11:59:58.232Z,92.90
2023-03-24T12:02:47.966Z,94.52
2023-03-24T12:05:23.758Z,93.50
2023-03-24T12:08:14.859Z,92.32
2023-03-24T12:10:53.284Z,92.05
2023-03-24T12:13:49.622Z,93.35
2023-03-24T12:16:21.894Z,91.63
2023-03-24T12:19:19.380Z,90.94
2023-03-24T12:22:01.157Z,91.00
2023-03-24T12:24:38.800Z,94.12
2023-03-24T12:27:05.698Z,92.81
2023-03-24T12:30:13.589Z,91.13
2023-03-24T12:33:11.471Z,86.54
2023-03-24T12:36:02.041Z,86.02
2023-03-24T12:38:49.711Z,84.46
2023-03-24T12:41:29.138Z,85.40
2023-03-24T12:44:07.594Z,85.61
2023-03-24T12:46:50.429Z,86.28
2023-03-24T12:49:36.641Z,84.09
2023-03-24T12:52:19.481Z,86.17
2023-03-24T12:54:55.122Z,86.31
2023-03-24T12:57:27.183Z,86.48
2023-03-24T13:00:00.831Z,86.09
2023-03-24T13:02:34.197Z,85.82
2023-03-24T13:05:05.343Z,83.24
2023-03-24T13:07:43.795Z,85.38
2023-03-24T13:10:13.865Z,86.45
2023-03-24T13:12:54.974Z,87.45
2023-03-24T13:15:35.475Z,87.30
2023-03-24T13:18:26.972Z,85.63
2023-03-24T13:21:00.144Z,87.43
2023-03-24T13:23:26.590Z,87.46
2023-03-24T13:26:05.034Z,86.99
2023-03-24T13:28:38.748Z,84.12
2023-03-24T13:31:09.223Z,82.59
2023-03-24T13:33:38.944Z,81.54
2023-03-24T13:36:26.595Z,82.25
2023-03-24T13:38:57.797Z,80.17
2023-03-24T13:41:30.696Z,80.15
2023-03-24T13:44:06.172Z,82.79
2023-03-24T13:46:36.978Z,81.95
2023-03-24T13:49:06.998Z,81.26
2023-03-24T13:51:41.020Z,82.45
2023-03-24T13:54:16.929Z,81.43
2023-03-24T13:56:49.352Z,77.14
2023-03-24T13:59:24.583Z,74.02
2023-03-24T14:02:15.883Z,75.54
2023-03-24T14:04:48.269Z,75.43
2023-03-24T14:07:39.131Z,76.15
2023-03-24T14:10:39.858Z,77.75
2023-03-24T14:13:46.137Z,81.85
2023-03-24T14:16:49.107Z,84.40
2023-03-24T14:19:23.504Z,83.67
2023-03-24T14:22:22.488Z,85.23
2023-03-24T14:25:15.265Z,86.89
2023-03-24T14:27:47.349Z,86.56
2023-03-24T14:30:25.156Z,88.64
2023-03-24T14:33:02.626Z,88.36
2023-03-24T14:35:46.649Z,85.02
2023-03-24T14:38:16.270Z,85.46
2023-03-24T14:41:08.165Z,83.92
2023-03-24T14:43:41.486Z,83.45
2023-03-24T14:46:20.310Z,86.38
2023-03-24T14:48:56.457Z,83.45
2023-03-24T14:51:25.774Z,83.80
2023-03-24T14:53:57.953Z,85.07
2023-03-24T14:56:29.470Z,84.95
2023-03-24T14:59:08.718Z,86.62
2023-03-24T15:01:35.651Z,82.04
2023-03-24T15:04:08.992Z,81.12
2023-03-24T15:06:46.870Z,79.82
2023-03-24T15:09:16.173Z,80.85
2023-03-24T15:11:44.623Z,81.33
2023-03-24T15:14:21.353Z,79.87
2023-03-24T15:16:58.059Z,82.04
2023-03-24T15:19:30.881Z,75.06
2023-03-24T15:22:02.911Z,74.15
2023-03-24T15:24:33.048Z,74.29
2023-03-24T15:27:08.501Z,75.93
2023-03-24T15:29:43.290Z,77.07
2023-03-24T15:32:19.288Z,76.99
2023-03-24T15:34:56.568Z,77.40
2023-03-24T15:37:24.644Z,80.40
2023-03-24T15:39:59.178Z,81.83
2023-03-24T15:42:33.272Z,82.51
2023-03-24T15:45:10.712Z,83.59
2023-03-24T15:47:41.260Z,82.96
2023-03-24T15:50:40.918Z,84.17
2023-03-24T15:53:25.107Z,84.17
2023-03-24T15:56:06.877Z,81.04
2023-03-24T15:58:46.397Z,80.99
2023-03-24T16:01:17.189Z,81.23
2023-03-24T16:03:48.405Z,81.45
2023-03-24T16:06:16.543Z,81.21
2023-03-24T16:08:43.886Z,79.16
2023-03-24T16:11:14.817Z,79.25
2023-03-24T16:13:44.997Z,82.77
2023-03-24T16:16:14.421Z,77.84
2023-03-24T16:18:44.014Z,80.65
2023-03-24T16:21:10.531Z,80.28
2023-03-24T16:23:37.430Z,78.88
2023-03-24T16:26:04.193Z,79.33
2023-03-24T16:28:32.807Z,79.05
2023-03-24T16:31:03.558Z,81.44
2023-03-24T16:33:33.342Z,82.76
2023-03-24T16:36:00.971Z,83.83
2023-03-24T16:38:27.689Z,83.28
2023-03-24T16:40:56.795Z,83.79
2023-03-24T16:43:24.004Z,83.12
2023-03-24T16:45:51.463Z,83.73
2023-03-24T16:48:18.143Z,84.63
2023-03-24T16:50:50.304Z,86.22
2023-03-24T16:53:18.115Z,87.57
2023-03-24T16:55:45.204Z,86.62
2023-03-24T16:58:16.484Z,87.51
2023-03-24T17:00:43.991Z,86.27
2023-03-24T17:03:10.791Z,88.26
2023-03-24T17:05:43.891Z,87.76
2023-03-24T17:08:10.536Z,86.62
2023-03-24T17:10:37.354Z,87.69
2023-03-24T17:13:03.879Z,88.70
2023-03-24T17:15:33.273Z,88.23
2023-03-24T17:18:00.933Z,88.12
2023-03-24T17:20:29.625Z,87.13
2023-03-24T17:22:59.524Z,86.46
2023-03-24T17:25:29.243Z,87.94
2023-03-24T17:27:57.291Z,87.76
2023-03-24T17:30:25.818Z,85.34
2023-03-24T17:32:54.803Z,85.59
2023-03-24T17:35:23.820Z,85.36
2023-03-24T17:37:53.864Z,82.58
2023-03-24T17:40:20.754Z,82.90
2023-03-24T17:42:47.344Z,83.84
2023-03-24T17:45:16.923Z,83.09
2023-03-24T17:47:43.757Z,81.94
2023-03-24T17:50:11.216Z,80.70
2023-03-24T17:52:46.232Z,82.04
2023-03-24T17:55:15.463Z,82.62
2023-03-24T17:57:43.014Z,83.18
2023-03-24T18:00:12.009Z,82.63
2023-03-24T18:02:39.835Z,79.99
2023-03-24T18:05:07.718Z,81.86
2023-03-24T18:07:35.189Z,82.04
2023-03-24T18:10:02.109Z,81.71
2023-03-24T18:12:28.848Z,81.14
2023-03-24T18:14:55.438Z,82.73
2023-03-24T18:17:22.284Z,81.49
2023-03-24T18:19:50.223Z,84.70
2023-03-24T18:22:17.318Z,85.05
2023-03-24T18:24:43.809Z,84.12
2023-03-24T18:27:10.447Z,84.16
2023-03-24T18:29:37.735Z,84.91
2023-03-24T18:32:05.276Z,85.77
2023-03-24T18:34:32.302Z,85.91
2023-03-24T18:36:59.415Z,86.28
2023-03-24T18:39:25.897Z,86.63
2023-03-24T18:41:53.841Z,85.63
2023-03-24T18:44:21.694Z,85.04
2023-03-24T18:46:49.036Z,81.49
2023-03-24T18:49:15.748Z,83.35
2023-03-24T18:51:43.567Z,84.01
2023-03-24T18:54:11.995Z,84.73
2023-03-24T18:56:38.622Z,86.06
2023-03-24T18:59:05.746Z,86.81
2023-03-24T19:01:33.400Z,85.78
2023-03-24T19:04:00.225Z,86.16
2023-03-24T19:06:30.940Z,85.85
2023-03-24T19:08:59.134Z,86.90
2023-03-24T19:11:26.650Z,87.52
2023-03-24T19:13:55.900Z,87.23
2023-03-24T19:16:22.711Z,88.24
2023-03-24T19:18:50.495Z,89.01
2023-03-24T19:21:17.776Z,90.49
2023-03-24T19:23:46.809Z,91.24
2023-03-24T19:26:14.010Z,92.07
2023-03-24T19:28:41.289Z,89.10
2023-03-24T19:31:10.705Z,90.95
2023-03-24T19:33:38.033Z,90.76
2023-03-24T19:36:06.358Z,91.85
2023-03-24T19:38:33.282Z,91.79
2023-03-24T19:41:05.730Z,91.64
2023-03-24T19:43:34.509Z,89.92
2023-03-24T19:46:01.017Z,90.49
2023-03-24T19:48:27.558Z,91.16
2023-03-24T19:50:55.105Z,89.22
2023-03-24T19:53:23.568Z,87.92
2023-03-24T19:55:50.875Z,85.86
2023-03-24T19:58:17.733Z,83.67
2023-03-24T20:00:44.223Z,84.36
2023-03-24T20:03:11.082Z,83.38
2023-03-24T20:05:37.709Z,84.47
2023-03-24T20:08:04.547Z,84.14
2023-03-24T20:10:31.345Z,83.08
2023-03-24T20:12:57.894Z,82.46
2023-03-24T20:15:24.370Z,80.60
2023-03-24T20:17:51.423Z,81.01
2023-03-24T20:20:17.950Z,79.53
2023-03-24T20:22:45.894Z,81.57
2023-03-24T20:25:15.545Z,81.60
2023-03-24T20:27:45.154Z,84.24
2023-03-24T20:30:12.962Z,84.04
2023-03-24T20:32:39.448Z,84.14
2023-03-24T20:35:06.471Z,85.37
2023-03-24T20:37:35.654Z,84.81
2023-03-24T20:40:05.328Z,84.24
2023-03-24T20:42:31.967Z,85.16
2023-03-24T20:44:58.610Z,84.39
2023-03-24T20:47:25.401Z,82.64
2023-03-24T20:49:51.873Z,83.14
2023-03-24T20:52:20.685Z,82.85
2023-03-24T20:54:47.313Z,81.68
2023-03-24T20:57:13.877Z,81.67
2023-03-24T20:59:40.582Z,80.51
2023-03-24T21:02:09.996Z,80.18
2023-03-24T21:04:36.710Z,80.65
2023-03-24T21:07:03.284Z,77.72
2023-03-24T21:09:29.802Z,77.30
2023-03-24T21:11:56.296Z,77.13
2023-03-24T21:14:23.102Z,75.91
2023-03-24T21:16:50.056Z,76.26
2023-03-24T21:19:16.703Z,76.63
2023-03-24T21:21:44.639Z,76.87
2023-03-24T21:24:13.245Z,77.67
2023-03-24T21:26:39.998Z,78.94
2023-03-24T21:29:10.410Z,79.35
2023-03-24T21:31:37.515Z,78.95
2023-03-24T21:34:04.076Z,80.10
2023-03-24T21:36:31.018Z,82.57
2023-03-24T21:38:58.494Z,85.98
2023-03-24T21:41:25.075Z,81.58
2023-03-24T21:43:54.082Z,81.46
2023-03-24T21:46:22.265Z,81.29
2023-03-24T21:48:51.912Z,82.74
2023-03-24T21:51:25.243Z,81.91
2023-03-24T21:54:03.718Z,80.26
2023-03-24T21:56:34.270Z,80.02
2023-03-24T21:59:01.312Z,79.83
2023-03-24T22:01:27.912Z,80.36
2023-03-24T22:03:54.756Z,81.33
2023-03-24T22:06:22.822Z,80.36
2023-03-24T22:08:53.103Z,80.24
2023-03-24T22:11:19.844Z,81.10
2023-03-24T22:13:46.679Z,79.88
2023-03-24T22:16:13.615Z,81.17
2023-03-24T22:18:40.861Z,81.50
2023-03-24T22:21:09.608Z,79.88
2023-03-24T22:23:39.414Z,80.92
2023-03-24T22:26:09.239Z,78.93
2023-03-24T22:28:36.404Z,79.06
2023-03-24T22:31:08.268Z,80.16
2023-03-24T22:33:35.468Z,79.34
2023-03-24T22:36:02.797Z,79.38
2023-03-24T22:38:30.221Z,78.79
2023-03-24T22:41:01.657Z,77.06
2023-03-24T22:43:29.021Z,77.45
2023-03-24T22:45:55.550Z,75.09
2023-03-24T22:48:22.812Z,74.64
2023-03-24T22:50:49.816Z,75.53
2023-03-24T22:53:16.419Z,76.95
2023-03-24T22:55:44.736Z,78.29
2023-03-24T22:58:15.453Z,79.38
2023-03-24T23:00:43.947Z,78.13
2023-03-24T23:03:10.700Z,79.28
2023-03-24T23:05:45.569Z,78.29
2023-03-24T23:08:14.451Z,79.06
2023-03-24T23:10:43.527Z,79.74
2023-03-24T23:13:10.693Z,80.41
2023-03-24T23:15:38.576Z,79.62
2023-03-24T23:18:05.315Z,79.47
2023-03-24T23:20:32.023Z,80.86
2023-03-24T23:22:58.641Z,78.99
2023-03-24T23:25:25.969Z,81.15
2023-03-24T23:27:52.536Z,81.32
2023-03-24T23:30:19.705Z,81.32
2023-03-24T23:32:46.791Z,79.46
2023-03-24T23:35:14.127Z,78.24
2023-03-24T23:37:40.682Z,77.06
2023-03-24T23:40:13.016Z,77.20
2023-03-24T23:42:41.410Z,78.65
2023-03-24T23:45:09.837Z,77.45
2023-03-24T23:47:36.717Z,77.54
2023-03-24T23:50:06.322Z,77.76
2023-03-24T23:52:33.494Z,79.95
2023-03-24T23:55:02.049Z,79.42
2023-03-24T23:57:29.122Z,79.55
2023-03-24T23:59:55.667Z,78.42
